createdAt,value
2022-08-06T00:00:06.652Z,22.17
2022-08-06T00:02:35.152Z,22.18
2022-08-06T00:05:06.010Z,22.58
2022-08-06T00:07:44.558Z,22.61
2022-08-06T00:10:13.657Z,22.85
2022-08-06T00:12:41.054Z,23.00
2022-08-06T00:15:13.505Z,22.69
2022-08-06T00:17:43.634Z,23.04
2022-08-06T00:20:11.453Z,22.92
2022-08-06T00:22:38.387Z,22.92
2022-08-06T00:25:08.894Z,23.09
2022-08-06T00:27:38.998Z,23.11
2022-08-06T00:30:18.595Z,23.10
2022-08-06T00:32:51.843Z,22.99
2022-08-06T00:35:21.661Z,22.91
2022-08-06T00:37:54.983Z,22.91
2022-08-06T00:40:26.010Z,22.74
2022-08-06T00:42:56.828Z,22.77
2022-08-06T00:45:25.553Z,22.80
2022-08-06T00:48:02.291Z,22.78
2022-08-06T00:50:31.641Z,22.73
2022-08-06T00:52:59.799Z,22.54
2022-08-06T00:55:32.021Z,22.75
2022-08-06T00:58:03.820Z,22.73
2022-08-06T01:00:31.160Z,22.87
2022-08-06T01:03:04.090Z,22.61
2022-08-06T01:06:03.959Z,22.74
2022-08-06T01:08:17.625Z,22.59
2022-08-06T01:10:45.020Z,22.97
2022-08-06T01:13:22.913Z,23.18
2022-08-06T01:16:30.147Z,23.46
2022-08-06T01:19:01.163Z,23.33
2022-08-06T01:22:00.914Z,23.35
2022-08-06T01:24:51.835Z,23.40
2022-08-06T01:27:43.123Z,23.65
2022-08-06T01:30:25.249Z,23.75
2022-08-06T01:33:04.498Z,23.74
2022-08-06T01:35:47.056Z,23.71
2022-08-06T01:38:44.940Z,23.75
2022-08-06T01:41:58.355Z,23.71
2022-08-06T01:44:29.523Z,23.58
2022-08-06T01:47:01.019Z,23.58
2022-08-06T01:50:00.107Z,23.45
2022-08-06T01:52:30.058Z,23.50
2022-08-06T01:54:59.945Z,23.50
2022-08-06T01:57:32.905Z,23.66
2022-08-06T02:00:16.188Z,23.69
2022-08-06T02:02:44.789Z,23.37
2022-08-06T02:05:14.199Z,23.08
2022-08-06T02:08:37.770Z,22.88
2022-08-06T02:10:34.421Z,22.83
2022-08-06T02:13:03.902Z,22.57
2022-08-06T02:15:45.400Z,22.48
2022-08-06T02:18:35.005Z,22.51
2022-08-06T02:21:18.464Z,22.40
2022-08-06T02:23:48.249Z,22.39
2022-08-06T02:26:18.353Z,22.43
2022-08-06T02:28:50.317Z,22.34
2022-08-06T02:31:17.957Z,21.99
2022-08-06T02:34:02.458Z,21.84
2022-08-06T02:36:50.436Z,21.88
2022-08-06T02:39:29.802Z,22.02
2022-08-06T02:42:15.051Z,22.14
2022-08-06T02:45:03.648Z,22.19
2022-08-06T02:47:55.929Z,22.26
2022-08-06T02:50:38.327Z,22.35
2022-08-06T02:53:24.251Z,22.40
2022-08-06T02:55:57.272Z,22.53
2022-08-06T02:58:45.321Z,22.59
2022-08-06T03:01:29.415Z,22.41
2022-08-06T03:04:08.070Z,22.57
2022-08-06T03:06:37.300Z,22.62
2022-08-06T03:09:07.595Z,22.52
2022-08-06T03:11:38.645Z,22.58
2022-08-06T03:14:13.331Z,22.70
2022-08-06T03:16:58.663Z,22.81
2022-08-06T03:19:57.603Z,22.58
2022-08-06T03:22:34.617Z,22.58
2022-08-06T03:25:03.764Z,22.82
2022-08-06T03:27:43.601Z,22.73
2022-08-06T03:30:32.184Z,21.86
2022-08-06T03:33:28.493Z,22.05
2022-08-06T03:36:00.612Z,21.88
2022-08-06T03:38:29.770Z,21.21
2022-08-06T03:41:01.126Z,21.03
2022-08-06T03:43:56.169Z,20.78
2022-08-06T03:46:21.211Z,20.72
2022-08-06T03:48:51.278Z,20.59
2022-08-06T03:51:29.709Z,20.58
2022-08-06T03:54:09.813Z,20.74
2022-08-06T03:56:46.557Z,20.73
2022-08-06T03:59:19.648Z,20.41
2022-08-06T04:01:50.793Z,20.36
2022-08-06T04:04:25.989Z,20.58
2022-08-06T04:06:56.192Z,21.01
2022-08-06T04:09:57.701Z,21.30
2022-08-06T04:12:42.763Z,21.56
2022-08-06T04:15:00.735Z,21.63
2022-08-06T04:17:32.954Z,21.81
2022-08-06T04:20:01.576Z,21.88
2022-08-06T04:23:00.258Z,21.97
2022-08-06T04:25:16.803Z,22.13
2022-08-06T04:27:53.168Z,22.17
2022-08-06T04:30:25.366Z,22.26
2022-08-06T04:33:00.199Z,22.23
2022-08-06T04:36:04.545Z,22.25
2022-08-06T04:38:28.244Z,22.40
2022-08-06T04:40:57.775Z,22.48
2022-08-06T04:43:38.439Z,22.52
2022-08-06T04:46:16.256Z,22.56
2022-08-06T04:48:47.054Z,22.48
2022-08-06T04:51:17.386Z,22.51
2022-08-06T04:54:04.502Z,22.54
2022-08-06T04:56:37.185Z,22.33
2022-08-06T04:59:05.808Z,22.40
2022-08-06T05:01:40.818Z,22.40
2022-08-06T05:04:22.781Z,22.53
2022-08-06T05:06:56.823Z,22.56
2022-08-06T05:09:42.792Z,22.57
2022-08-06T05:12:33.890Z,22.60
2022-08-06T05:15:08.858Z,22.61
2022-08-06T05:17:41.555Z,22.73
2022-08-06T05:20:27.600Z,22.86
2022-08-06T05:23:09.036Z,22.84
2022-08-06T05:25:48.137Z,22.81
2022-08-06T05:28:22.859Z,22.70
2022-08-06T05:30:55.547Z,22.89
2022-08-06T05:33:26.632Z,22.93
2022-08-06T05:36:01.640Z,22.93
2022-08-06T05:38:32.100Z,23.24
2022-08-06T05:41:03.579Z,23.15
2022-08-06T05:43:58.769Z,23.26
2022-08-06T05:46:25.021Z,23.32
2022-08-06T05:48:55.186Z,23.37
2022-08-06T05:51:43.671Z,23.34
2022-08-06T05:54:38.578Z,23.27
2022-08-06T05:57:33.542Z,23.42
2022-08-06T06:00:41.837Z,23.44
2022-08-06T06:03:01.859Z,23.63
2022-08-06T06:06:07.296Z,23.55
2022-08-06T06:08:29.566Z,23.67
2022-08-06T06:11:06.239Z,23.72
2022-08-06T06:13:57.946Z,23.79
2022-08-06T06:16:32.365Z,23.87
2022-08-06T06:19:21.673Z,23.89
2022-08-06T06:22:17.310Z,24.08
2022-08-06T06:24:53.870Z,24.05
2022-08-06T06:27:42.524Z,24.03
2022-08-06T06:30:33.090Z,23.80
2022-08-06T06:33:36.550Z,23.96
2022-08-06T06:36:17.522Z,23.99
2022-08-06T06:38:47.419Z,24.10
2022-08-06T06:41:53.323Z,23.88
2022-08-06T06:45:03.607Z,23.59
2022-08-06T06:47:46.493Z,23.95
2022-08-06T06:50:36.314Z,24.02
2022-08-06T06:53:03.394Z,24.36
2022-08-06T06:55:56.926Z,24.20
2022-08-06T06:58:47.320Z,24.31
2022-08-06T07:01:28.648Z,24.35
2022-08-06T07:03:58.056Z,24.48
2022-08-06T07:06:30.818Z,24.41
2022-08-06T07:09:00.371Z,24.40
2022-08-06T07:12:01.617Z,24.52
2022-08-06T07:14:33.689Z,24.72
2022-08-06T07:17:01.771Z,24.70
2022-08-06T07:19:50.511Z,24.06
2022-08-06T07:22:19.240Z,23.94
2022-08-06T07:24:47.266Z,24.15
2022-08-06T07:27:16.525Z,23.87
2022-08-06T07:29:59.637Z,23.46
2022-08-06T07:32:32.087Z,23.04
2022-08-06T07:35:12.119Z,23.46
2022-08-06T07:37:50.154Z,23.53
2022-08-06T07:40:28.605Z,23.93
2022-08-06T07:43:24.779Z,23.83
2022-08-06T07:45:54.915Z,23.55
2022-08-06T07:48:28.878Z,23.86
2022-08-06T07:51:01.096Z,24.06
2022-08-06T07:53:40.925Z,24.24
2022-08-06T07:56:16.598Z,24.44
2022-08-06T07:58:45.951Z,24.57
2022-08-06T08:01:17.183Z,24.73
2022-08-06T08:04:30.121Z,24.94
2022-08-06T08:06:56.462Z,25.17
2022-08-06T08:09:29.509Z,25.27
2022-08-06T08:12:25.626Z,25.33
2022-08-06T08:15:03.346Z,25.31
2022-08-06T08:17:35.486Z,24.93
2022-08-06T08:20:15.446Z,24.90
2022-08-06T08:22:48.437Z,25.13
2022-08-06T08:25:21.421Z,25.25
2022-08-06T08:28:12.758Z,24.99
2022-08-06T08:30:44.492Z,25.10
2022-08-06T08:33:18.432Z,25.19
2022-08-06T08:35:49.826Z,25.09
2022-08-06T08:38:29.396Z,24.98
2022-08-06T08:40:57.566Z,24.90
2022-08-06T08:43:58.814Z,24.81
2022-08-06T08:46:18.963Z,24.70
2022-08-06T08:49:01.416Z,24.88
2022-08-06T08:51:28.751Z,24.99
2022-08-06T08:53:58.539Z,25.19
2022-08-06T08:57:07.938Z,25.29
2022-08-06T08:59:57.794Z,25.47
2022-08-06T09:02:01.156Z,25.48
2022-08-06T09:04:29.131Z,25.57
2022-08-06T09:06:57.248Z,25.41
2022-08-06T09:09:30.310Z,25.51
2022-08-06T09:12:05.353Z,25.31
2022-08-06T09:14:47.526Z,25.36
2022-08-06T09:17:14.632Z,25.40
2022-08-06T09:19:45.586Z,25.05
2022-08-06T09:22:12.555Z,24.92
2022-08-06T09:24:40.296Z,25.09
2022-08-06T09:27:46.899Z,25.10
2022-08-06T09:30:25.305Z,25.19
2022-08-06T09:32:57.895Z,25.11
2022-08-06T09:35:42.783Z,24.93
2022-08-06T09:38:10.930Z,24.78
2022-08-06T09:40:37.694Z,25.00
2022-08-06T09:43:10.106Z,25.16
2022-08-06T09:45:45.708Z,25.15
2022-08-06T09:48:17.783Z,25.06
2022-08-06T09:50:51.069Z,25.12
2022-08-06T09:53:21.680Z,25.22
2022-08-06T09:55:58.551Z,25.22
2022-08-06T09:58:37.676Z,25.32
2022-08-06T10:01:21.112Z,25.23
2022-08-06T10:04:02.470Z,25.32
2022-08-06T10:06:39.854Z,25.02
2022-08-06T10:09:20.923Z,25.11
2022-08-06T10:12:00.149Z,25.05
2022-08-06T10:14:32.034Z,25.11
2022-08-06T10:17:11.671Z,25.07
2022-08-06T10:19:51.986Z,25.13
2022-08-06T10:22:27.012Z,25.04
2022-08-06T10:24:57.147Z,25.06
2022-08-06T10:27:35.880Z,25.08
2022-08-06T10:30:07.198Z,25.00
2022-08-06T10:32:46.723Z,25.16
2022-08-06T10:35:25.318Z,25.12
2022-08-06T10:38:14.812Z,25.17
2022-08-06T10:40:57.416Z,25.37
2022-08-06T10:43:30.092Z,25.17
2022-08-06T10:46:02.607Z,24.82
2022-08-06T10:50:22.634Z,24.96
2022-08-06T10:51:56.714Z,25.12
2022-08-06T10:54:19.695Z,25.06
2022-08-06T10:56:49.401Z,24.55
2022-08-06T10:59:19.077Z,23.95
2022-08-06T11:02:23.481Z,23.62
2022-08-06T11:05:17.962Z,23.67
2022-08-06T11:08:41.144Z,23.19
2022-08-06T11:11:42.265Z,23.28
2022-08-06T11:14:14.752Z,23.07
2022-08-06T11:17:00.077Z,23.03
2022-08-06T11:19:57.556Z,22.90
2022-08-06T11:22:38.889Z,22.91
2022-08-06T11:25:26.345Z,22.79
2022-08-06T11:28:02.848Z,22.67
2022-08-06T11:30:54.460Z,22.51
2022-08-06T11:33:43.759Z,22.65
2022-08-06T11:36:24.513Z,22.45
2022-08-06T11:38:59.306Z,22.64
2022-08-06T11:41:54.233Z,22.41
2022-08-06T11:44:35.818Z,22.39
2022-08-06T11:47:22.940Z,22.74
2022-08-06T11:50:04.333Z,22.30
2022-08-06T11:52:41.188Z,22.72
2022-08-06T11:55:12.961Z,22.45
2022-08-06T11:58:10.872Z,22.33
2022-08-06T12:00:56.377Z,22.46
2022-08-06T12:03:45.054Z,22.01
2022-08-06T12:06:29.399Z,22.12
2022-08-06T12:09:35.924Z,22.33
2022-08-06T12:12:26.617Z,21.82
2022-08-06T12:14:55.002Z,22.04
2022-08-06T12:17:44.756Z,21.90
2022-08-06T12:20:13.319Z,21.72
2022-08-06T12:23:00.910Z,21.36
2022-08-06T12:25:32.419Z,21.42
2022-08-06T12:27:59.211Z,21.33
2022-08-06T12:30:35.934Z,21.48
2022-08-06T12:33:04.325Z,21.36
2022-08-06T12:35:57.877Z,21.22
2022-08-06T12:38:27.607Z,20.81
2022-08-06T12:41:09.533Z,21.00
2022-08-06T12:43:56.562Z,21.04
2022-08-06T12:46:29.761Z,21.09
2022-08-06T12:49:01.562Z,20.95
2022-08-06T12:51:30.400Z,21.12
2022-08-06T12:54:02.263Z,21.07
2022-08-06T12:56:32.959Z,21.11
2022-08-06T12:59:05.833Z,21.31
2022-08-06T13:02:07.318Z,21.34
2022-08-06T13:04:30.211Z,21.21
2022-08-06T13:06:59.479Z,21.21
2022-08-06T13:09:35.891Z,21.49
2022-08-06T13:12:19.755Z,21.42
2022-08-06T13:15:02.742Z,21.58
2022-08-06T13:18:01.779Z,21.72
2022-08-06T13:20:43.982Z,21.56
2022-08-06T13:23:22.476Z,21.33
2022-08-06T13:25:54.447Z,21.16
2022-08-06T13:28:38.387Z,21.17
2022-08-06T13:31:23.845Z,21.15
2022-08-06T13:34:14.792Z,21.27
2022-08-06T13:36:50.047Z,21.35
2022-08-06T13:39:33.923Z,21.58
2022-08-06T13:42:14.316Z,21.22
2022-08-06T13:44:45.102Z,21.44
2022-08-06T13:47:35.844Z,21.47
2022-08-06T13:50:06.303Z,21.56
2022-08-06T13:52:35.185Z,21.40
2022-08-06T13:55:02.127Z,21.59
2022-08-06T13:57:36.582Z,21.65
2022-08-06T14:00:11.198Z,21.65
2022-08-06T14:02:39.219Z,21.30
2022-08-06T14:05:19.979Z,21.21
2022-08-06T14:07:50.715Z,21.55
2022-08-06T14:10:18.597Z,21.42
2022-08-06T14:13:12.771Z,21.54
2022-08-06T14:15:44.549Z,21.59
2022-08-06T14:18:11.830Z,21.57
2022-08-06T14:20:42.041Z,21.42
2022-08-06T14:23:08.895Z,21.60
2022-08-06T14:26:00.282Z,21.48
2022-08-06T14:28:22.798Z,21.55
2022-08-06T14:30:52.098Z,21.40
2022-08-06T14:33:26.346Z,21.45
2022-08-06T14:35:53.707Z,21.34
2022-08-06T14:38:21.728Z,21.36
2022-08-06T14:41:17.094Z,21.31
2022-08-06T14:44:02.418Z,21.25
2022-08-06T14:46:31.970Z,21.19
2022-08-06T14:49:05.847Z,21.28
2022-08-06T14:52:19.999Z,21.04
2022-08-06T14:54:31.694Z,21.11
2022-08-06T14:57:14.663Z,21.17
2022-08-06T14:59:48.505Z,21.28
2022-08-06T15:02:20.800Z,21.25
2022-08-06T15:04:52.189Z,21.19
2022-08-06T15:07:25.594Z,21.05
2022-08-06T15:10:27.629Z,21.01
2022-08-06T15:13:01.001Z,20.96
2022-08-06T15:15:36.527Z,20.73
2022-08-06T15:18:25.212Z,20.52
2022-08-06T15:21:00.617Z,20.42
2022-08-06T15:23:44.834Z,20.51
2022-08-06T15:26:47.269Z,20.31
2022-08-06T15:29:04.575Z,20.51
2022-08-06T15:31:37.564Z,20.36
2022-08-06T15:34:07.017Z,20.44
2022-08-06T15:36:36.178Z,20.56
2022-08-06T15:39:09.321Z,20.29
2022-08-06T15:41:42.843Z,20.43
2022-08-06T15:44:10.335Z,20.43
2022-08-06T15:46:41.661Z,20.35
2022-08-06T15:49:13.051Z,20.41
2022-08-06T15:52:00.840Z,20.46
2022-08-06T15:54:28.421Z,20.69
2022-08-06T15:56:55.067Z,20.53
2022-08-06T15:59:21.743Z,20.42
2022-08-06T16:01:52.421Z,20.54
2022-08-06T16:04:32.488Z,20.42
2022-08-06T16:07:07.275Z,20.52
2022-08-06T16:09:56.077Z,20.53
2022-08-06T16:12:23.503Z,20.63
2022-08-06T16:14:57.145Z,20.88
2022-08-06T16:17:53.330Z,20.86
2022-08-06T16:20:20.907Z,21.11
2022-08-06T16:22:53.000Z,21.15
2022-08-06T16:25:22.812Z,21.19
2022-08-06T16:27:51.828Z,21.26
2022-08-06T16:30:19.576Z,21.35
2022-08-06T16:32:46.276Z,21.28
2022-08-06T16:35:17.632Z,21.38
2022-08-06T16:37:51.916Z,21.15
2022-08-06T16:40:21.724Z,21.38
2022-08-06T16:42:49.315Z,20.96
2022-08-06T16:45:16.689Z,20.58
2022-08-06T16:50:36.376Z,20.48
2022-08-06T16:54:08.784Z,20.32
2022-08-06T16:55:55.608Z,20.45
2022-08-06T17:02:15.151Z,20.63
2022-08-06T17:04:00.031Z,20.66
2022-08-06T17:12:04.073Z,20.82
2022-08-06T17:14:33.824Z,20.68
2022-08-06T17:17:06.702Z,20.73
2022-08-06T17:19:34.304Z,21.01
2022-08-06T17:22:04.008Z,20.75
2022-08-06T17:24:37.738Z,20.57
2022-08-06T17:27:10.554Z,20.67
2022-08-06T17:29:45.747Z,20.65
2022-08-06T17:32:30.174Z,20.42
2022-08-06T17:35:10.867Z,20.44
2022-08-06T17:37:44.318Z,20.51
2022-08-06T17:40:19.229Z,20.48
2022-08-06T17:43:04.725Z,20.61
2022-08-06T17:45:51.735Z,20.43
2022-08-06T17:48:24.799Z,20.68
2022-08-06T17:50:52.126Z,20.62
2022-08-06T17:53:21.468Z,20.31
2022-08-06T17:55:59.689Z,20.38
2022-08-06T17:58:34.557Z,20.47
2022-08-06T18:01:10.145Z,20.53
2022-08-06T18:03:50.606Z,20.60
2022-08-06T18:06:18.807Z,20.59
2022-08-06T18:08:50.838Z,20.56
2022-08-06T18:11:19.566Z,20.60
2022-08-06T18:13:52.775Z,20.47
2022-08-06T18:16:26.557Z,20.51
2022-08-06T18:18:57.406Z,20.60
2022-08-06T18:21:25.547Z,20.48
2022-08-06T18:23:56.204Z,20.48
2022-08-06T18:26:30.793Z,20.61
2022-08-06T18:28:59.958Z,20.75
2022-08-06T18:31:59.197Z,20.65
2022-08-06T18:34:16.203Z,20.72
2022-08-06T18:36:45.478Z,20.80
2022-08-06T18:39:15.000Z,20.77
2022-08-06T18:41:56.877Z,20.79
2022-08-06T18:44:27.248Z,20.91
2022-08-06T18:46:55.498Z,20.83
2022-08-06T18:49:32.215Z,20.78
2022-08-06T18:52:06.083Z,20.83
2022-08-06T18:54:56.562Z,20.90
2022-08-06T18:57:37.991Z,20.86
2022-08-06T19:00:18.315Z,20.87
2022-08-06T19:02:45.313Z,20.86
2022-08-06T19:05:15.566Z,20.91
2022-08-06T19:07:49.806Z,20.79
2022-08-06T19:10:19.011Z,20.88
2022-08-06T19:12:48.274Z,20.80
2022-08-06T19:15:19.639Z,20.76
2022-08-06T19:18:13.422Z,20.79
2022-08-06T19:20:38.183Z,20.79
2022-08-06T19:23:06.413Z,20.76
2022-08-06T19:25:52.736Z,20.70
2022-08-06T19:28:34.814Z,20.66
2022-08-06T19:31:11.349Z,20.62
2022-08-06T19:33:38.324Z,20.71
2022-08-06T19:36:26.983Z,20.56
2022-08-06T19:38:53.855Z,20.54
2022-08-06T19:41:55.099Z,20.15
2022-08-06T19:44:25.760Z,20.05
2022-08-06T19:46:57.337Z,20.12
2022-08-06T19:49:24.538Z,20.41
2022-08-06T19:52:04.091Z,20.29
2022-08-06T19:54:36.446Z,20.45
2022-08-06T19:57:08.442Z,20.42
2022-08-06T20:00:51.075Z,20.47
2022-08-06T20:02:26.263Z,20.27
2022-08-06T20:04:55.770Z,20.34
2022-08-06T20:07:25.769Z,20.44
2022-08-06T20:09:59.891Z,20.23
2022-08-06T20:12:33.866Z,20.37
2022-08-06T20:15:28.473Z,20.59
2022-08-06T20:17:55.419Z,20.46
2022-08-06T20:20:28.958Z,20.44
2022-08-06T20:23:00.139Z,20.45
2022-08-06T20:25:27.314Z,20.45
2022-08-06T20:29:07.351Z,20.31
2022-08-06T20:30:49.394Z,20.37
2022-08-06T20:33:24.328Z,20.40
2022-08-06T20:35:57.278Z,20.40
2022-08-06T20:38:33.263Z,20.18
2022-08-06T20:41:57.612Z,20.37
2022-08-06T20:44:06.243Z,20.38
2022-08-06T20:49:29.049Z,20.42
2022-08-06T20:52:10.950Z,20.34
2022-08-06T20:54:51.269Z,20.22
2022-08-06T20:57:25.600Z,20.24
2022-08-06T20:59:54.101Z,20.17
2022-08-06T21:02:25.993Z,20.13
2022-08-06T21:05:15.159Z,20.25
2022-08-06T21:07:57.563Z,20.27
2022-08-06T21:10:30.553Z,20.13
2022-08-06T21:13:06.206Z,20.15
2022-08-06T21:15:54.468Z,20.19
2022-08-06T21:18:21.900Z,19.88
2022-08-06T21:20:51.674Z,19.77
2022-08-06T21:23:26.298Z,19.27
2022-08-06T21:26:15.058Z,19.28
2022-08-06T21:28:54.183Z,19.24
2022-08-06T21:31:24.025Z,19.13
2022-08-06T21:33:54.219Z,19.18
2022-08-06T21:36:25.807Z,19.36
2022-08-06T21:38:55.275Z,19.44
2022-08-06T21:41:42.227Z,19.75
2022-08-06T21:44:17.359Z,19.88
2022-08-06T21:46:50.319Z,19.89
2022-08-06T21:49:58.084Z,19.85
2022-08-06T21:52:11.880Z,19.89
2022-08-06T21:54:43.352Z,19.63
2022-08-06T21:57:12.316Z,19.76
2022-08-06T21:59:46.207Z,19.83
2022-08-06T22:02:21.622Z,19.77
2022-08-06T22:04:59.103Z,19.61
2022-08-06T22:07:33.610Z,19.71
2022-08-06T22:10:13.417Z,19.61
2022-08-06T22:13:11.873Z,19.48
2022-08-06T22:15:34.157Z,19.46
2022-08-06T22:18:16.869Z,19.48
2022-08-06T22:20:45.978Z,19.22
2022-08-06T22:23:17.280Z,19.16
2022-08-06T22:25:45.231Z,18.98
2022-08-06T22:28:23.845Z,19.21
2022-08-06T22:31:01.335Z,19.09
2022-08-06T22:33:45.442Z,18.79
2022-08-06T22:36:18.126Z,19.02
2022-08-06T22:39:01.582Z,19.06
2022-08-06T22:41:42.351Z,18.86
2022-08-06T22:44:14.950Z,18.94
2022-08-06T22:46:57.898Z,18.89
2022-08-06T22:49:24.951Z,18.94
2022-08-06T22:51:51.838Z,18.80
2022-08-06T22:54:29.893Z,18.84
2022-08-06T22:57:06.064Z,19.13
2022-08-06T23:00:07.003Z,19.11
2022-08-06T23:02:22.051Z,19.13
2022-08-06T23:04:49.594Z,19.21
2022-08-06T23:07:24.302Z,19.15
2022-08-06T23:09:54.278Z,19.19
2022-08-06T23:12:31.450Z,19.21
2022-08-06T23:15:19.908Z,19.02
2022-08-06T23:17:56.055Z,19.25
2022-08-06T23:20:26.214Z,19.09
2022-08-06T23:22:59.713Z,19.26
2022-08-06T23:26:00.966Z,19.25
2022-08-06T23:28:13.166Z,19.10
2022-08-06T23:30:41.882Z,19.00
2022-08-06T23:33:08.567Z,18.88
2022-08-06T23:35:38.023Z,18.82
2022-08-06T23:38:31.747Z,18.83
2022-08-06T23:40:55.065Z,19.03
2022-08-06T23:43:22.993Z,18.99
2022-08-06T23:45:50.210Z,18.94
2022-08-06T23:48:17.382Z,18.75
2022-08-06T23:50:53.080Z,18.83
2022-08-06T23:54:08.565Z,18.76
2022-08-06T23:56:16.662Z,18.76
2022-08-06T23:58:48.930Z,18.65
